首页
METAR-TAF:

METAR-TAF

机场 :

班德爾馬, 土耳其

纬度: 40-19N, 经度: 027-58E, 海拔: 51米

当前天气观测

该预报发布于15小时和41分钟前的08:42 UTC
风速4节,风向东南,在南转南东之间变化
温度 6°C
湿度 100%
气压 1018 hPa
能見度: 1600
多云层高于500英尺
轻雾

METAR: LTBG 090842Z 13004KT 100V160 1600 BR BKN005 06/06 Q1018 BECMG SCT010 RMK RWY18 14006KT

时间: 03:23 (00:23 UTC)

预报

该预报发布于1小时和43分钟前的22:40 UTC
预报有效从10日的 00点(UTC)到 10日的 09点(UTC)
风速2节,风向多变
能見度: 0300
多云层高于700英尺
成为
从 10日的 05点(UTC)到 10日的 08点(UTC)
能见度10公里或以上
1500米以下无云,无积雨云

TAF: LTBG 092240Z 1000/1009 VRB02KT 0300 FG BKN007 BECMG 1005/1008 CAVOK

超过4000个机场的气象观测和天气预报(METAR&TAF报告)。

可查询的气象台以黄色和红色小点在地图上表示。

将鼠标移到小点上方,可查看气象台名称。

然后点击查看天气观测和预报。

如需切换地图:点击带黑十字的绿色按钮放大地图;点击带横线的绿色按钮缩小地图;或者点击绿色箭头查看邻近地区的地图。


METAR-TAF: